Time;durP1;ratioP1;P1;durP2;ratioP2;P2;SDS_P1;SDS_P2;PMS_P1;PMS_P2;Temp;Humidity;BMP_temperature;BMP_pressure;BME280_temperature;BME280_humidity;BME280_pressure;Samples;Min_cycle;Max_cycle;Signal;HPM_P1;HPM_P2
2023/05/16 00:00:52;;;;;;;22.27;13.23;;;15.40;99.90;;;15.49;73.38;94681.56;5107570;28;20456;-55
2023/05/16 00:03:19;;;;;;;18.83;14.67;;;15.40;99.90;;;15.45;73.51;94675.81;5109627;27;20471;-60
2023/05/16 00:05:46;;;;;;;26.10;12.80;;;15.30;99.90;;;15.44;73.54;94686.59;5111733;27;20450;-57
2023/05/16 00:08:14;;;;;;;25.20;14.47;;;15.30;99.90;;;15.42;73.36;94679.63;5108854;27;20538;-55
2023/05/16 00:10:42;;;;;;;22.83;15.33;;;15.30;99.90;;;15.40;73.51;94684.28;5110238;27;20536;-61
2023/05/16 00:13:10;;;;;;;32.03;15.20;;;15.30;99.90;;;15.37;73.68;94674.03;5111603;27;20455;-60
2023/05/16 00:15:38;;;;;;;20.00;15.23;;;15.30;99.90;;;15.36;73.69;94667.06;5114276;27;20961;-60
2023/05/16 00:18:06;;;;;;;26.07;14.10;;;15.20;99.90;;;15.33;73.67;94659.47;5110246;27;20442;-59
2023/05/16 00:20:33;;;;;;;19.73;14.47;;;15.20;99.90;;;15.31;73.86;94664.13;5108847;27;20941;-59
2023/05/16 00:23:00;;;;;;;21.40;15.70;;;15.20;99.90;;;15.29;73.90;94666.13;5110493;27;20477;-58
2023/05/16 00:25:28;;;;;;;18.13;16.23;;;15.20;99.90;;;15.28;73.96;94669.78;5118518;27;20517;-57
2023/05/16 00:27:57;;;;;;;19.50;15.17;;;15.20;99.90;;;15.26;74.06;94658.53;5112047;27;20481;-54
2023/05/16 00:30:24;;;;;;;27.13;16.00;;;15.20;99.90;;;15.24;74.25;94657.88;5114753;27;20449;-56
2023/05/16 00:32:51;;;;;;;20.40;15.40;;;15.10;99.90;;;15.23;74.20;94656.22;5109080;27;20536;-60
2023/05/16 00:35:19;;;;;;;23.23;15.83;;;15.10;99.90;;;15.20;74.49;94661.88;5108290;27;20515;-55
2023/05/16 00:37:46;;;;;;;25.33;15.10;;;15.10;99.90;;;15.20;74.34;94656.56;5110734;27;20457;-60
2023/05/16 00:40:14;;;;;;;25.87;15.80;;;15.10;99.90;;;15.18;74.69;94651.44;5110477;27;20463;-59
2023/05/16 00:42:42;;;;;;;24.90;16.27;;;15.10;99.90;;;15.16;74.65;94644.66;5110936;27;20479;-61
2023/05/16 00:45:11;;;;;;;21.33;14.97;;;15.00;99.90;;;15.14;74.47;94630.78;5107268;27;20483;-55
2023/05/16 00:47:39;;;;;;;20.20;15.07;;;15.00;99.90;;;15.11;74.74;94631.94;5118447;27;20453;-60
2023/05/16 00:50:07;;;;;;;19.43;13.87;;;15.00;99.90;;;15.10;74.98;94640.06;5108646;27;20477;-57
2023/05/16 00:52:35;;;;;;;22.10;15.63;;;15.00;99.90;;;15.07;74.79;94625.34;5110724;27;20460;-59
2023/05/16 00:55:02;;;;;;;21.07;13.80;;;15.00;99.90;;;15.06;74.86;94629.00;5110573;27;20593;-57
2023/05/16 00:57:30;;;;;;;29.03;15.43;;;14.90;99.90;;;15.04;75.07;94631.81;5106121;27;20445;-55
2023/05/16 00:59:57;;;;;;;26.77;16.07;;;14.90;99.90;;;15.02;75.03;94638.28;5107601;27;20545;-59
2023/05/16 01:02:27;;;;;;;26.53;15.60;;;14.90;99.90;;;14.99;75.19;94634.13;5111666;27;20493;-59
2023/05/16 01:04:55;;;;;;;19.60;14.17;;;14.90;99.90;;;14.98;75.16;94631.66;5115823;27;20472;-60
2023/05/16 01:07:22;;;;;;;21.60;16.00;;;14.80;99.90;;;14.97;75.42;94624.75;5114220;27;20456;-56
2023/05/16 01:09:50;;;;;;;19.93;15.43;;;14.80;99.90;;;14.94;75.51;94625.09;5110557;27;20458;-60
2023/05/16 01:12:23;;;;;;;21.90;14.50;;;14.80;99.90;;;14.93;75.19;94632.19;5111783;27;20515;-59
2023/05/16 01:14:55;;;;;;;19.23;14.03;;;14.80;99.90;;;14.93;75.51;94629.53;5114775;27;20553;-60
2023/05/16 01:17:28;;;;;;;25.53;14.73;;;14.80;99.90;;;14.92;75.58;94627.91;5112964;27;20975;-55
2023/05/16 01:20:05;;;;;;;30.43;14.90;;;14.80;99.90;;;14.90;75.70;94611.34;5114077;27;20534;-59
2023/05/16 01:22:47;;;;;;;23.00;14.60;;;14.80;99.90;;;14.91;75.63;94609.53;5111832;27;20457;-59
2023/05/16 01:25:31;;;;;;;20.20;13.40;;;14.80;99.90;;;14.88;75.43;94611.50;5109589;27;20515;-56
2023/05/16 01:28:00;;;;;;;23.43;14.43;;;14.80;99.90;;;14.90;75.41;94614.00;5113352;27;20453;-59
2023/05/16 01:30:32;;;;;;;21.20;15.10;;;14.80;99.90;;;14.90;75.46;94614.00;5111447;27;20492;-58
2023/05/16 01:32:59;;;;;;;15.90;13.87;;;14.80;99.90;;;14.90;75.30;94611.34;5115409;27;20452;-56
2023/05/16 01:35:27;;;;;;;22.37;15.93;;;14.80;99.90;;;14.88;75.74;94603.56;5108102;27;20515;-59
2023/05/16 01:37:59;;;;;;;32.53;15.27;;;14.80;99.90;;;14.87;75.62;94598.44;5108219;27;20469;-60
2023/05/16 01:40:32;;;;;;;18.13;14.17;;;14.80;99.90;;;14.86;75.51;94599.47;5112760;27;20483;-58
2023/05/16 01:43:00;;;;;;;18.17;15.03;;;14.70;99.90;;;14.83;75.68;94590.03;5109606;27;20503;-57
2023/05/16 01:45:30;;;;;;;38.60;16.70;;;14.70;99.90;;;14.82;75.76;94590.22;5108111;27;20460;-60
2023/05/16 01:48:03;;;;;;;19.43;16.10;;;14.70;99.90;;;14.80;75.57;94594.84;5106655;27;20469;-61
2023/05/16 01:50:31;;;;;;;23.80;16.00;;;14.70;99.90;;;14.77;75.82;94590.72;5112874;27;20454;-60
2023/05/16 01:53:00;;;;;;;17.93;15.03;;;14.60;99.90;;;14.75;75.87;94589.25;5111819;27;20460;-61
2023/05/16 01:55:37;;;;;;;28.80;16.83;;;14.70;99.90;;;14.73;75.77;94581.47;5109009;27;20489;-60
2023/05/16 01:58:06;;;;;;;19.07;14.67;;;14.60;99.90;;;14.72;75.98;94573.69;5112256;27;20525;-56
2023/05/16 02:00:33;;;;;;;24.57;16.80;;;14.60;99.90;;;14.68;76.06;94573.22;5111225;27;20549;-56
2023/05/16 02:03:00;;;;;;;36.80;17.30;;;14.60;99.90;;;14.66;75.88;94570.75;5104324;28;21057;-57
2023/05/16 02:05:27;;;;;;;24.10;16.37;;;14.60;99.90;;;14.65;75.98;94584.97;5111902;27;20461;-56
2023/05/16 02:07:55;;;;;;;26.50;16.23;;;14.60;99.90;;;14.62;75.75;94592.44;5105981;27;20461;-60
2023/05/16 02:10:22;;;;;;;27.97;18.47;;;14.50;99.90;;;14.61;76.06;94577.56;5114533;27;20707;-56
2023/05/16 02:12:50;;;;;;;23.67;16.43;;;14.50;99.90;;;14.58;75.95;94584.00;5111239;27;20457;-56
2023/05/16 02:15:19;;;;;;;23.97;18.03;;;14.50;99.90;;;14.56;76.06;94579.88;5110779;27;20484;-60
2023/05/16 02:17:46;;;;;;;28.10;18.00;;;14.50;99.90;;;14.56;75.99;94575.38;5105641;28;20534;-55
2023/05/16 02:20:13;;;;;;;20.53;16.97;;;14.50;99.90;;;14.54;76.02;94574.75;5107298;27;20821;-56
2023/05/16 02:22:41;;;;;;;25.07;18.70;;;14.40;99.90;;;14.52;76.35;94574.91;5108973;27;20516;-56
2023/05/16 02:25:09;;;;;;;22.87;17.30;;;14.40;99.90;;;14.51;76.11;94578.53;5112151;27;20479;-59
2023/05/16 02:27:36;;;;;;;21.07;15.50;;;14.40;99.90;;;14.50;76.23;94581.38;5107442;27;20470;-55
2023/05/16 02:30:05;;;;;;;24.80;16.67;;;14.40;99.90;;;14.48;76.28;94572.78;5110653;28;20476;-56
2023/05/16 02:32:34;;;;;;;22.90;15.77;;;14.40;99.90;;;14.47;76.45;94577.25;5110598;27;20487;-59
2023/05/16 02:35:01;;;;;;;21.47;16.47;;;14.40;99.90;;;14.47;76.63;94584.38;5105526;27;21041;-55
2023/05/16 02:37:29;;;;;;;26.07;16.60;;;14.30;99.90;;;14.46;76.65;94582.72;5108176;28;20522;-57
2023/05/16 02:39:56;;;;;;;25.87;15.93;;;14.40;99.90;;;14.47;76.75;94589.66;5105917;28;20484;-60
2023/05/16 02:42:23;;;;;;;20.73;16.33;;;14.40;99.90;;;14.46;76.68;94585.38;5109369;28;20465;-55
2023/05/16 02:44:51;;;;;;;19.83;15.80;;;14.30;99.90;;;14.47;76.65;94576.44;5111916;27;20464;-59
2023/05/16 02:47:18;;;;;;;24.07;16.17;;;14.40;99.90;;;14.46;76.68;94582.72;5121293;27;20839;-56
2023/05/16 02:49:47;;;;;;;23.10;15.73;;;14.40;99.90;;;14.45;76.66;94581.06;5115635;28;20556;-55
2023/05/16 02:52:14;;;;;;;21.80;16.63;;;14.30;99.90;;;14.45;76.71;94573.13;5115949;28;21402;-55
2023/05/16 02:54:42;;;;;;;22.93;15.90;;;14.30;99.90;;;14.44;76.85;94572.31;5110197;27;20484;-59
2023/05/16 02:57:12;;;;;;;28.00;18.10;;;14.30;99.90;;;14.44;76.85;94564.38;5107199;28;21234;-56
2023/05/16 02:59:39;;;;;;;24.10;16.97;;;14.40;99.90;;;14.43;76.85;94560.06;5112409;27;20624;-55
2023/05/16 03:02:07;;;;;;;24.23;16.40;;;14.40;99.90;;;14.45;77.13;94565.19;5109507;28;20449;-56
2023/05/16 03:04:34;;;;;;;22.27;16.00;;;14.30;99.90;;;14.43;76.87;94568.00;5109066;27;20472;-55
2023/05/16 03:07:03;;;;;;;22.50;17.73;;;14.30;99.90;;;14.44;76.83;94568.84;5108939;28;20445;-60
2023/05/16 03:09:30;;;;;;;26.60;17.97;;;14.30;99.90;;;14.44;77.24;94563.56;5107796;28;20522;-57
2023/05/16 03:11:58;;;;;;;18.80;15.67;;;14.30;99.90;;;14.44;76.97;94560.91;5109593;28;20449;-60
2023/05/16 03:14:25;;;;;;;30.60;17.03;;;14.30;99.90;;;14.44;76.88;94560.91;5109838;28;21009;-56
2023/05/16 03:16:53;;;;;;;23.00;16.37;;;14.30;99.90;;;14.44;77.04;94561.72;5106892;28;20463;-55
2023/05/16 03:19:20;;;;;;;34.23;16.20;;;14.30;99.90;;;14.44;77.08;94559.06;5107209;28;21022;-59
2023/05/16 03:21:47;;;;;;;23.80;15.67;;;14.40;99.90;;;14.46;77.12;94564.19;5118937;27;20457;-56
2023/05/16 03:24:16;;;;;;;23.50;16.80;;;14.40;99.90;;;14.46;77.18;94564.19;5107888;28;20556;-57
2023/05/16 03:26:43;;;;;;;24.83;16.30;;;14.40;99.90;;;14.47;77.31;94560.56;5111335;28;20457;-60
2023/05/16 03:29:10;;;;;;;20.40;15.73;;;14.40;99.90;;;14.48;77.22;94567.47;5109178;28;20510;-57
2023/05/16 03:31:38;;;;;;;23.23;15.63;;;14.30;99.90;;;14.46;77.17;94567.66;5106196;28;20465;-60
2023/05/16 03:34:05;;;;;;;28.37;19.47;;;14.40;99.90;;;14.46;77.13;94559.72;5105990;28;20595;-57
2023/05/16 03:36:32;;;;;;;22.47;16.03;;;14.40;99.90;;;14.47;77.18;94566.66;5113500;27;20506;-59
2023/05/16 03:38:59;;;;;;;29.97;16.60;;;14.40;99.90;;;14.47;77.14;94556.09;5113554;27;20469;-61
2023/05/16 03:41:28;;;;;;;23.33;16.30;;;14.40;99.90;;;14.47;77.02;94550.78;5113903;27;20484;-61
2023/05/16 03:43:55;;;;;;;26.20;16.47;;;14.30;99.90;;;14.48;77.34;94562.19;5113526;27;20480;-57
2023/05/16 03:46:22;;;;;;;24.50;14.40;;;14.40;99.90;;;14.48;77.40;94562.19;5108973;28;20635;-56
2023/05/16 03:48:50;;;;;;;19.70;15.87;;;14.40;99.90;;;14.49;77.41;94562.03;5113384;27;20495;-60
2023/05/16 03:51:17;;;;;;;22.63;16.47;;;14.40;99.90;;;14.51;77.35;94553.91;5107079;27;20514;-56
2023/05/16 03:53:44;;;;;;;23.33;15.90;;;14.40;99.90;;;14.51;77.39;94551.25;5108351;27;20477;-55
2023/05/16 03:56:11;;;;;;;29.67;17.10;;;14.40;99.90;;;14.52;77.29;94552.94;5116345;27;20495;-57
2023/05/16 03:58:40;;;;;;;21.10;15.80;;;14.40;99.90;;;14.52;77.43;94563.50;5110825;27;20495;-55
2023/05/16 04:01:07;;;;;;;20.50;15.30;;;14.40;99.90;;;14.51;77.41;94556.56;5107797;28;20526;-60
2023/05/16 04:03:35;;;;;;;20.20;15.93;;;14.40;99.90;;;14.52;77.40;94552.94;5114402;27;20480;-57
2023/05/16 04:06:02;;;;;;;22.90;16.50;;;14.40;99.90;;;14.52;77.69;94547.63;5108129;27;20448;-64
2023/05/16 04:08:30;;;;;;;34.00;16.33;;;14.40;99.90;;;14.55;77.68;94557.03;5109504;27;20481;-60
2023/05/16 04:10:57;;;;;;;24.50;18.80;;;14.40;99.90;;;14.56;77.60;94558.69;5108014;27;20460;-56
2023/05/16 04:13:24;;;;;;;29.53;16.77;;;14.50;99.90;;;14.57;77.52;94560.34;5113829;27;20476;-59
2023/05/16 04:15:53;;;;;;;18.23;15.63;;;14.50;99.90;;;14.59;77.38;94563.63;5115985;27;20473;-60
2023/05/16 04:18:20;;;;;;;24.57;16.63;;;14.50;99.90;;;14.61;77.53;94559.88;5110824;27;20473;-55
2023/05/16 04:20:47;;;;;;;29.27;17.30;;;14.50;99.90;;;14.62;77.29;94561.50;5111124;27;20445;-59
2023/05/16 04:23:14;;;;;;;25.60;17.20;;;14.50;99.90;;;14.64;77.13;94556.88;5115207;27;21022;-57
2023/05/16 04:25:42;;;;;;;22.37;16.13;;;14.50;99.90;;;14.67;77.37;94553.88;5108379;27;20449;-57
2023/05/16 04:28:09;;;;;;;23.97;15.40;;;14.60;99.90;;;14.68;77.37;94552.88;5107204;28;21500;-54
2023/05/16 04:30:37;;;;;;;50.20;18.00;;;14.60;99.90;;;14.70;77.17;94550.88;5107264;28;20510;-58
2023/05/16 04:33:06;;;;;;;27.00;16.30;;;14.60;99.90;;;14.73;77.17;94564.78;5113640;27;20453;-57
2023/05/16 04:35:34;;;;;;;23.50;16.30;;;14.60;99.90;;;14.74;77.20;94558.50;5107375;27;20493;-56
2023/05/16 04:38:01;;;;;;;24.27;15.80;;;14.60;99.90;;;14.77;77.07;94566.09;5112773;27;20532;-60
2023/05/16 04:40:28;;;;;;;22.80;15.80;;;14.70;99.90;;;14.78;77.14;94551.81;5113148;27;20456;-60
2023/05/16 04:42:58;;;;;;;48.77;17.30;;;14.70;99.90;;;14.78;77.26;94546.53;5111203;27;20509;-56
2023/05/16 04:45:25;;;;;;;30.13;16.23;;;14.70;99.90;;;14.80;77.01;94555.16;5114020;27;20459;-59
2023/05/16 04:47:52;;;;;;;21.30;16.50;;;14.70;99.90;;;14.81;77.17;94551.47;5114576;27;20460;-55
2023/05/16 04:50:21;;;;;;;26.90;16.30;;;14.60;99.90;;;14.82;77.11;94548.66;5118468;27;20468;-57
2023/05/16 04:52:48;;;;;;;24.30;15.93;;;14.70;99.90;;;14.83;76.83;94545.03;5111991;27;20865;-60
2023/05/16 04:55:16;;;;;;;20.80;15.73;;;14.70;99.90;;;14.84;76.89;94551.97;5111010;27;20492;-59
2023/05/16 04:57:43;;;;;;;19.60;14.60;;;14.70;99.90;;;14.86;76.88;94554.44;5108525;27;20445;-55
2023/05/16 05:00:13;;;;;;;21.30;15.63;;;14.70;99.90;;;14.86;76.80;94549.97;5110866;27;20846;-54
2023/05/16 05:02:40;;;;;;;22.40;16.20;;;14.80;99.90;;;14.89;76.95;94551.47;5104673;27;20449;-59
2023/05/16 05:05:09;;;;;;;22.10;15.33;;;14.80;99.90;;;14.90;76.88;94545.13;5115344;27;20534;-60
2023/05/16 05:07:37;;;;;;;30.50;16.07;;;14.80;99.90;;;14.89;76.80;94548.81;5108234;27;20457;-58
2023/05/16 05:10:06;;;;;;;21.87;15.57;;;14.80;99.90;;;14.91;76.64;94551.28;5106067;28;20550;-56
2023/05/16 05:12:33;;;;;;;24.63;14.40;;;14.80;99.90;;;14.92;76.72;94556.41;5107605;27;20449;-59
2023/05/16 05:15:01;;;;;;;16.63;13.83;;;14.80;99.90;;;14.93;76.80;94560.69;5107580;27;20527;-61
2023/05/16 05:17:28;;;;;;;19.47;15.30;;;14.80;99.90;;;14.94;76.70;94556.22;5107522;28;20537;-59
2023/05/16 05:19:55;;;;;;;27.20;16.37;;;14.80;99.90;;;14.94;76.67;94557.03;5106352;28;21007;-54
2023/05/16 05:22:23;;;;;;;27.30;16.50;;;14.80;99.90;;;14.95;76.68;94549.91;5106531;28;20562;-54
2023/05/16 05:24:51;;;;;;;21.30;13.80;;;14.80;99.90;;;14.94;76.66;94549.09;5117835;27;20880;-56
2023/05/16 05:27:19;;;;;;;30.67;16.90;;;14.80;99.90;;;14.95;76.62;94550.75;5110019;27;20454;-59
2023/05/16 05:29:46;;;;;;;26.47;15.20;;;14.80;99.90;;;14.98;76.55;94552.22;5107124;28;20526;-55
2023/05/16 05:32:13;;;;;;;27.03;15.80;;;14.90;99.90;;;14.97;76.54;94540.81;5110932;27;20459;-60
2023/05/16 05:34:40;;;;;;;26.13;15.07;;;14.80;99.90;;;14.99;76.66;94536.16;5111196;27;20519;-56
2023/05/16 05:37:08;;;;;;;28.90;17.10;;;14.90;99.90;;;15.00;76.83;94535.16;5110603;27;21040;-60
2023/05/16 05:39:35;;;;;;;28.93;17.20;;;14.90;99.90;;;15.01;76.70;94534.16;5108500;27;20897;-57
2023/05/16 05:42:04;;;;;;;25.20;17.10;;;14.90;99.90;;;15.02;76.54;94521.75;5109499;27;20445;-56
2023/05/16 05:44:32;;;;;;;28.30;17.77;;;14.90;99.90;;;15.02;76.46;94527.84;5110105;27;21345;-59
2023/05/16 05:46:59;;;;;;;21.90;17.80;;;14.90;99.90;;;15.02;76.52;94527.84;5110261;27;20457;-56
2023/05/16 05:49:26;;;;;;;25.50;19.70;;;14.90;99.90;;;15.02;76.44;94522.56;5105947;28;20525;-60
2023/05/16 05:51:54;;;;;;;34.80;17.97;;;14.90;99.90;;;15.05;76.59;94521.38;5106282;28;20963;-60
2023/05/16 05:54:21;;;;;;;34.43;18.47;;;14.90;99.90;;;15.09;76.51;94527.16;5105976;28;20476;-60
2023/05/16 05:56:48;;;;;;;31.53;16.90;;;15.00;99.90;;;15.11;76.52;94519.88;5108300;27;20480;-57
2023/05/16 05:59:17;;;;;;;38.50;17.70;;;15.00;99.90;;;15.14;76.24;94524.81;5108189;27;20473;-59
2023/05/16 06:01:44;;;;;;;21.10;14.90;;;15.00;99.90;;;15.15;76.28;94526.44;5113456;27;20452;-60
2023/05/16 06:04:12;;;;;;;21.73;14.60;;;15.00;99.90;;;15.19;76.16;94533.88;5110322;27;20876;-55
2023/05/16 06:06:39;;;;;;;19.97;14.40;;;15.10;99.90;;;15.23;76.03;94531.72;5110226;27;20928;-56
2023/05/16 06:09:06;;;;;;;23.40;13.47;;;15.10;99.90;;;15.29;75.81;94535.44;5111130;27;20560;-59
2023/05/16 06:11:33;;;;;;;18.87;13.17;;;15.10;99.90;;;15.33;75.71;94526.97;5110164;27;20450;-57
2023/05/16 06:14:01;;;;;;;23.17;14.07;;;15.20;99.90;;;15.37;75.52;94525.63;5117561;27;20475;-54
2023/05/16 06:16:29;;;;;;;24.60;13.77;;;15.20;99.90;;;15.42;75.36;94522.44;5111516;27;20935;-59
2023/05/16 06:18:57;;;;;;;24.10;12.80;;;15.30;99.90;;;15.48;75.04;94515.63;5106785;27;21077;-55
2023/05/16 06:21:24;;;;;;;22.23;13.63;;;15.40;99.90;;;15.54;75.25;94525.50;5112352;27;20956;-60
2023/05/16 06:23:51;;;;;;;19.53;13.40;;;15.40;99.90;;;15.61;74.86;94515.81;5107671;27;20473;-60
2023/05/16 06:26:19;;;;;;;21.33;13.27;;;15.50;99.90;;;15.67;75.05;94523.03;5107657;27;20457;-60
2023/05/16 06:28:46;;;;;;;27.23;15.30;;;15.50;99.90;;;15.75;75.20;94520.34;5110432;27;20487;-57
2023/05/16 06:31:13;;;;;;;21.63;14.03;;;15.60;99.90;;;15.81;74.81;94521.47;5110525;27;20449;-60
2023/05/16 06:33:42;;;;;;;38.67;13.63;;;15.70;99.90;;;15.87;74.34;94523.38;5106238;27;20473;-60
2023/05/16 06:36:10;;;;;;;28.80;13.37;;;15.70;99.90;;;15.91;74.02;94518.53;5110183;27;20492;-60
2023/05/16 06:38:37;;;;;;;24.70;12.67;;;15.70;99.90;;;15.92;73.90;94528.16;5110779;27;20496;-60
2023/05/16 06:41:04;;;;;;;15.27;11.30;;;15.80;99.90;;;15.93;73.77;94521.84;5115278;28;20563;-56
2023/05/16 06:43:31;;;;;;;17.80;11.60;;;15.80;99.90;;;15.92;73.33;94514.88;5109758;28;20473;-56
2023/05/16 06:45:59;;;;;;;22.50;11.47;;;15.80;99.90;;;15.93;73.27;94505.94;5114192;28;20448;-61
2023/05/16 06:48:26;;;;;;;15.60;10.90;;;15.80;99.90;;;15.95;73.29;94504.72;5111174;28;20530;-54
2023/05/16 06:50:55;;;;;;;25.33;12.80;;;15.80;99.90;;;16.00;73.42;94508.69;5113684;28;20945;-55
2023/05/16 06:53:22;;;;;;;28.70;12.83;;;15.90;99.90;;;16.03;73.50;94489.75;5112006;28;20465;-57
2023/05/16 06:55:50;;;;;;;15.80;11.10;;;15.90;99.90;;;16.08;73.14;94490.00;5111448;28;20845;-57
2023/05/16 06:58:17;;;;;;;27.07;10.00;;;15.90;99.90;;;16.09;72.74;94471.25;5105805;28;21105;-55
2023/05/16 07:00:44;;;;;;;24.77;9.53;;;16.00;99.90;;;16.11;72.54;94463.94;5105482;28;20453;-57
2023/05/16 07:03:11;;;;;;;19.00;9.13;;;16.00;99.90;;;16.15;72.30;94458.28;5104320;28;20455;-60
2023/05/16 07:05:39;;;;;;;19.70;10.30;;;16.00;99.90;;;16.17;71.80;94461.56;5106000;28;20453;-55
2023/05/16 07:08:09;;;;;;;12.57;9.40;;;16.00;99.90;;;16.19;71.94;94460.38;5106773;27;20453;-56
2023/05/16 07:10:36;;;;;;;14.20;10.93;;;16.10;99.90;;;16.23;71.45;94458.97;5107608;28;20456;-59
2023/05/16 07:13:03;;;;;;;26.80;10.63;;;16.10;99.90;;;16.27;71.27;94465.56;5112986;27;20524;-60
2023/05/16 07:15:31;;;;;;;17.53;11.10;;;16.10;99.90;;;16.31;71.14;94452.75;5107845;28;20464;-59
2023/05/16 07:17:58;;;;;;;16.83;9.60;;;16.20;99.90;;;16.35;71.19;94448.72;5111182;28;20933;-60
2023/05/16 07:20:25;;;;;;;16.30;9.70;;;16.20;99.90;;;16.39;70.92;94447.34;5118695;27;20452;-56
2023/05/16 07:22:53;;;;;;;18.63;9.70;;;16.30;99.90;;;16.45;71.13;94445.78;5108872;28;20453;-58
2023/05/16 07:25:21;;;;;;;12.37;9.50;;;16.40;99.90;;;16.51;70.69;94460.13;5111792;27;20460;-57
2023/05/16 07:27:48;;;;;;;13.70;8.27;;;16.40;99.90;;;16.55;70.43;94448.16;5114442;27;20440;-60
2023/05/16 07:30:16;;;;;;;20.67;9.30;;;16.40;99.90;;;16.59;70.50;94450.25;5115584;27;20479;-59
2023/05/16 07:32:43;;;;;;;14.93;8.40;;;16.40;99.90;;;16.61;69.70;94458.03;5116721;27;20536;-58
2023/05/16 07:35:12;;;;;;;18.10;7.83;;;16.50;99.90;;;16.66;68.75;94471.56;5113363;27;20472;-56
2023/05/16 07:37:41;;;;;;;10.70;8.07;;;16.50;99.90;;;16.71;68.95;94452.41;5112781;27;20481;-57
2023/05/16 07:40:10;;;;;;;26.17;8.90;;;16.60;99.90;;;16.78;68.72;94472.72;5112260;27;20469;-56
2023/05/16 07:42:38;;;;;;;14.87;8.63;;;16.60;99.90;;;16.83;68.77;94472.97;5111592;27;20449;-60
2023/05/16 07:45:07;;;;;;;21.57;8.47;;;16.70;99.90;;;16.89;68.35;94470.63;5114396;27;20473;-60
2023/05/16 07:47:34;;;;;;;11.70;8.80;;;16.80;99.90;;;16.95;68.44;94485.78;5110408;27;20783;-56
2023/05/16 07:50:02;;;;;;;14.40;9.47;;;16.80;99.90;;;17.00;68.18;94472.75;5113327;27;20464;-59
2023/05/16 07:52:29;;;;;;;12.60;8.80;;;16.90;99.90;;;17.05;68.28;94478.31;5111572;27;20480;-56
2023/05/16 07:54:57;;;;;;;21.77;9.07;;;16.90;99.90;;;17.13;68.01;94486.16;5111075;27;20476;-56
2023/05/16 07:57:24;;;;;;;11.30;8.10;;;17.00;99.90;;;17.17;67.43;94474.16;5111180;27;20571;-56
2023/05/16 07:59:53;;;;;;;13.47;8.13;;;17.00;99.90;;;17.22;67.38;94476.22;5112594;27;20477;-56
2023/05/16 08:02:20;;;;;;;9.00;7.97;;;17.10;99.90;;;17.27;67.20;94478.31;5109373;27;20825;-59
2023/05/16 08:04:47;;;;;;;13.23;8.17;;;17.10;99.90;;;17.32;67.13;94454.63;5116490;27;20538;-60
2023/05/16 08:07:15;;;;;;;11.60;7.67;;;17.20;99.90;;;17.36;66.87;94471.84;5110054;27;20449;-59
2023/05/16 08:09:42;;;;;;;15.63;7.97;;;17.20;99.90;;;17.39;66.27;94451.00;5111485;27;21024;-61
2023/05/16 08:12:10;;;;;;;20.80;8.70;;;17.30;99.90;;;17.44;66.58;94445.13;5111639;27;20441;-61
2023/05/16 08:14:37;;;;;;;15.83;9.00;;;17.30;99.90;;;17.49;66.41;94440.06;5109918;27;20477;-60
2023/05/16 08:17:06;;;;;;;17.40;7.57;;;17.30;99.90;;;17.54;66.14;94428.84;5111257;27;20973;-60
2023/05/16 08:19:33;;;;;;;14.13;8.43;;;17.40;99.90;;;17.62;66.12;94425.22;5109204;27;20477;-56
2023/05/16 08:22:01;;;;;;;18.13;8.70;;;17.50;99.90;;;17.72;65.69;94420.34;5110347;27;20450;-60
2023/05/16 08:24:28;;;;;;;13.43;8.30;;;17.60;99.90;;;17.82;66.04;94426.16;5113179;27;20585;-59
2023/05/16 08:26:56;;;;;;;19.13;9.33;;;17.70;99.90;;;17.94;65.40;94422.97;5112910;27;20449;-58
2023/05/16 08:29:23;;;;;;;19.20;7.77;;;17.70;99.90;;;18.02;64.91;94423.66;5114041;27;20504;-58
2023/05/16 08:31:50;;;;;;;14.77;7.90;;;17.80;99.90;;;18.08;65.14;94422.84;5109283;27;20449;-58
2023/05/16 08:34:19;;;;;;;15.50;8.83;;;17.90;99.90;;;18.10;64.33;94418.16;5117668;27;20456;-60
2023/05/16 08:36:47;;;;;;;17.97;9.30;;;18.00;99.90;;;18.07;63.94;94417.72;5112248;27;20488;-60
2023/05/16 08:39:15;;;;;;;10.10;8.40;;;17.90;99.90;;;18.06;64.72;94421.41;5108274;27;20576;-56
2023/05/16 08:41:42;;;;;;;15.50;8.40;;;17.90;99.90;;;18.07;64.39;94420.41;5115374;27;20825;-59
2023/05/16 08:44:11;;;;;;;19.43;8.47;;;18.00;99.90;;;18.08;64.40;94427.38;5110833;27;20867;-56
2023/05/16 08:46:39;;;;;;;17.30;8.10;;;18.00;99.90;;;18.12;64.51;94423.28;5110923;27;20556;-59
2023/05/16 08:49:06;;;;;;;10.70;7.77;;;18.00;99.90;;;18.17;64.10;94422.69;5112959;27;20483;-56
2023/05/16 08:51:35;;;;;;;16.20;8.00;;;18.00;99.90;;;18.18;64.12;94422.50;5110351;27;20457;-57
2023/05/16 08:54:06;;;;;;;12.47;7.70;;;18.10;99.90;;;18.26;64.25;94418.84;5111063;27;20468;-57
2023/05/16 08:56:34;;;;;;;13.20;7.23;;;18.10;99.90;;;18.34;63.83;94426.66;5112800;27;20473;-56
2023/05/16 08:59:02;;;;;;;13.70;8.10;;;18.20;99.90;;;18.41;63.00;94426.69;5115678;27;20973;-57
2023/05/16 09:01:30;;;;;;;19.17;8.90;;;18.30;99.90;;;18.49;62.96;94436.34;5109746;27;20862;-60
2023/05/16 09:03:57;;;;;;;14.53;8.10;;;18.30;99.90;;;18.57;63.17;94434.31;5112877;27;20476;-60
2023/05/16 09:06:25;;;;;;;13.27;7.10;;;18.40;99.90;;;18.66;62.09;94413.66;5107573;27;20463;-57
2023/05/16 09:08:54;;;;;;;10.67;7.20;;;18.50;99.90;;;18.75;63.16;94422.28;5109063;27;20530;-61
2023/05/16 09:11:21;;;;;;;10.20;8.13;;;18.60;99.90;;;18.84;63.04;94415.75;5106808;28;20458;-57
2023/05/16 09:13:48;;;;;;;37.40;8.07;;;18.60;99.90;;;18.93;62.18;94409.25;5105602;28;21339;-59
2023/05/16 09:16:16;;;;;;;15.23;8.70;;;18.70;99.90;;;18.97;61.93;94421.13;5107054;28;20501;-56
2023/05/16 09:18:45;;;;;;;10.10;7.87;;;18.80;99.90;;;19.04;62.47;94431.81;5110443;27;20465;-56
2023/05/16 09:21:14;;;;;;;16.10;7.43;;;18.80;99.90;;;19.08;61.15;94442.88;5110933;27;20460;-59
2023/05/16 09:23:43;;;;;;;15.87;8.30;;;18.90;99.90;;;19.10;61.89;94430.16;5107461;27;20465;-55
2023/05/16 09:26:12;;;;;;;11.80;7.90;;;18.90;99.90;;;19.17;62.02;94437.13;5114317;27;20524;-55
2023/05/16 09:28:39;;;;;;;21.40;8.13;;;19.00;99.90;;;19.27;62.30;94431.41;5109944;27;20469;-60
2023/05/16 09:31:21;;;;;;;13.20;7.80;;;19.00;99.90;;;19.37;61.46;94440.84;5108934;27;20460;-57
2023/05/16 09:33:49;;;;;;;10.80;7.80;;;19.20;99.90;;;19.42;61.45;94433.06;5107383;27;20473;-60
2023/05/16 09:36:16;;;;;;;12.23;7.43;;;19.20;99.90;;;19.44;61.41;94421.16;5108679;27;20529;-60
2023/05/16 09:38:44;;;;;;;9.57;7.70;;;19.20;99.90;;;19.46;61.00;94420.97;5112151;27;20469;-59
2023/05/16 09:41:12;;;;;;;19.60;7.53;;;19.30;99.90;;;19.44;60.91;94407.00;5106974;27;20820;-57
2023/05/16 09:43:40;;;;;;;15.73;8.87;;;19.30;99.90;;;19.44;60.85;94425.66;5108109;27;20530;-56
2023/05/16 09:46:08;;;;;;;12.20;7.80;;;19.30;99.90;;;19.48;61.11;94422.38;5106292;27;20987;-55
2023/05/16 09:48:35;;;;;;;17.30;7.80;;;19.30;99.90;;;19.56;61.34;94424.00;5110850;27;20469;-61
2023/05/16 09:51:03;;;;;;;14.53;8.20;;;19.40;99.90;;;19.67;61.22;94420.75;5108269;27;20818;-58
2023/05/16 09:53:32;;;;;;;22.20;8.13;;;19.40;99.90;;;19.76;60.83;94431.19;5108132;27;20518;-57
2023/05/16 09:56:06;;;;;;;10.90;8.07;;;19.50;99.90;;;19.81;60.08;94426.88;5110174;27;20514;-60
2023/05/16 09:58:36;;;;;;;15.30;8.03;;;19.60;99.90;;;19.89;60.16;94420.50;5110164;27;20578;-56
2023/05/16 10:01:03;;;;;;;23.90;8.70;;;19.70;99.90;;;20.02;60.16;94430.34;5108670;27;20771;-59
2023/05/16 10:03:31;;;;;;;13.37;7.80;;;19.80;99.90;;;20.14;60.46;94423.34;5107950;27;20481;-59
2023/05/16 10:05:58;;;;;;;12.13;7.73;;;19.90;99.90;;;20.24;59.91;94425.56;5114252;27;20440;-56
2023/05/16 10:08:26;;;;;;;13.17;8.90;;;20.00;99.90;;;20.32;59.76;94417.28;5105613;28;20527;-56
2023/05/16 10:10:55;;;;;;;17.63;8.20;;;20.10;99.90;;;20.41;59.36;94417.88;5105641;28;20456;-61